Time;durP1;ratioP1;P1;durP2;ratioP2;P2;SDS_P1;SDS_P2;PMS_P1;PMS_P2;Temp;Humidity;BMP_temperature;BMP_pressure;BME280_temperature;BME280_humidity;BME280_pressure;Samples;Min_cycle;Max_cycle;Signal;HPM_P1;HPM_P2
2023/01/14 00:00:15;;;;;;;;;;;;;;;1.64;85.35;95490.50;5114109;28;1058;-53
2023/01/14 00:02:41;;;;;;;;;;;;;;;1.40;84.51;95488.47;5113921;28;963;-52
2023/01/14 00:05:07;;;;;;;;;;;;;;;1.23;85.35;95500.06;5113692;28;1056;-52
2023/01/14 00:07:33;;;;;;;;;;;;;;;1.32;86.21;95493.41;5113768;28;992;-53
2023/01/14 00:09:59;;;;;;;;;;;;;;;1.38;84.48;95497.44;5113756;28;1057;-53
2023/01/14 00:12:25;;;;;;;;;;;;;;;1.28;84.66;95487.47;5113881;28;1979;-53
2023/01/14 00:14:51;;;;;;;;;;;;;;;1.09;85.56;95484.28;5113887;28;968;-53
2023/01/14 00:17:17;;;;;;;;;;;;;;;1.10;86.45;95489.47;5113608;28;1015;-53
2023/01/14 00:19:44;;;;;;;;;;;;;;;1.29;86.56;95491.81;5113451;28;1024;-52
2023/01/14 00:22:10;;;;;;;;;;;;;;;1.46;86.51;95495.16;5113622;28;1145;-52
2023/01/14 00:24:36;;;;;;;;;;;;;;;1.55;86.35;95491.94;5113386;28;1130;-53
2023/01/14 00:27:02;;;;;;;;;;;;;;;1.47;84.91;95495.06;5113620;28;1052;-52
2023/01/14 00:29:29;;;;;;;;;;;;;;;1.39;84.51;95501.78;5113557;28;1086;-53
2023/01/14 00:31:56;;;;;;;;;;;;;;;1.39;85.22;95507.88;5113753;28;1030;-53
2023/01/14 00:34:24;;;;;;;;;;;;;;;1.34;85.30;95507.31;5113524;28;1044;-53
2023/01/14 00:36:50;;;;;;;;;;;;;;;1.12;85.31;95510.44;5113482;28;1043;-52
2023/01/14 00:39:16;;;;;;;;;;;;;;;1.01;85.31;95518.16;5113396;28;1012;-53
2023/01/14 00:41:42;;;;;;;;;;;;;;;0.93;86.46;95514.22;5113627;28;971;-53
2023/01/14 00:44:08;;;;;;;;;;;;;;;0.93;86.07;95515.97;5113691;28;1030;-53
2023/01/14 00:46:35;;;;;;;;;;;;;;;0.94;86.84;95510.63;5113542;28;1033;-53
2023/01/14 00:49:02;;;;;;;;;;;;;;;0.90;86.14;95511.75;5113564;28;968;-53
2023/01/14 00:51:29;;;;;;;;;;;;;;;0.83;86.80;95518.31;5113149;28;1231;-53
2023/01/14 00:53:55;;;;;;;;;;;;;;;0.78;87.34;95509.88;5113292;28;1998;-53
2023/01/14 00:56:22;;;;;;;;;;;;;;;0.76;87.98;95506.50;5113523;28;992;-53
2023/01/14 00:58:48;;;;;;;;;;;;;;;0.85;87.52;95499.81;5113353;28;1118;-52
2023/01/14 01:01:14;;;;;;;;;;;;;;;1.06;86.78;95505.53;5113452;28;1000;-53
2023/01/14 01:03:45;;;;;;;;;;;;;;;0.99;86.37;95499.81;5113241;28;1094;-53
2023/01/14 01:06:11;;;;;;;;;;;;;;;0.94;86.55;95502.72;5113270;28;1872;-53
2023/01/14 01:08:38;;;;;;;;;;;;;;;1.10;86.47;95501.78;5113147;28;1084;-53
2023/01/14 01:11:04;;;;;;;;;;;;;;;1.10;86.58;95493.88;5113464;28;1035;-53
2023/01/14 01:13:31;;;;;;;;;;;;;;;1.01;86.98;95486.56;5113027;28;1913;-53
2023/01/14 01:16:02;;;;;;;;;;;;;;;1.11;86.60;95490.31;5113607;28;1008;-52
2023/01/14 01:18:28;;;;;;;;;;;;;;;1.19;87.22;95493.31;5116841;28;1199;-53
2023/01/14 01:21:02;;;;;;;;;;;;;;;1.09;85.78;95495.66;5116780;28;961;-53
2023/01/14 01:23:29;;;;;;;;;;;;;;;1.09;85.77;95487.78;5116815;28;1098;-52
2023/01/14 01:26:02;;;;;;;;;;;;;;;1.20;86.05;95483.63;5116695;28;1000;-53
2023/01/14 01:28:28;;;;;;;;;;;;;;;1.10;85.78;95480.72;5116534;28;1273;-53
2023/01/14 01:30:58;;;;;;;;;;;;;;;1.12;85.44;95482.31;5116571;28;1036;-53
2023/01/14 01:33:24;;;;;;;;;;;;;;;1.13;86.19;95491.06;5116453;28;1906;-53
2023/01/14 01:35:58;;;;;;;;;;;;;;;1.18;86.97;95483.72;5116733;28;1166;-53
2023/01/14 01:38:24;;;;;;;;;;;;;;;1.12;85.20;95482.31;5116579;28;980;-53
2023/01/14 01:40:50;;;;;;;;;;;;;;;0.69;85.19;95477.06;5116397;28;1079;-53
2023/01/14 01:43:23;;;;;;;;;;;;;;;0.53;86.77;95474.50;5116420;28;964;-53
2023/01/14 01:45:49;;;;;;;;;;;;;;;0.74;86.77;95474.13;5116416;28;1075;-52
2023/01/14 01:48:22;;;;;;;;;;;;;;;0.85;87.09;95482.22;5116719;28;1022;-53
2023/01/14 01:50:51;;;;;;;;;;;;;;;0.90;86.81;95474.91;5116213;28;1103;-53
2023/01/14 01:53:17;;;;;;;;;;;;;;;0.62;85.54;95470.47;5116225;28;1905;-52
2023/01/14 01:55:46;;;;;;;;;;;;;;;0.39;86.23;95472.69;5116156;28;957;-53
2023/01/14 01:58:12;;;;;;;;;;;;;;;0.38;87.06;95478.06;5116108;28;1049;-53
2023/01/14 02:00:38;;;;;;;;;;;;;;;0.60;87.39;95467.09;5115930;28;1044;-52
2023/01/14 02:03:08;;;;;;;;;;;;;;;0.65;86.82;95475.56;5116137;28;1050;-53
2023/01/14 02:05:34;;;;;;;;;;;;;;;0.55;85.95;95470.00;5116041;28;1006;-52
2023/01/14 02:08:00;;;;;;;;;;;;;;;0.42;85.94;95461.16;5116083;27;984;-53
2023/01/14 02:10:36;;;;;;;;;;;;;;;0.23;86.24;95463.16;5115834;28;968;-52
2023/01/14 02:13:25;;;;;;;;;;;;;;;0.34;86.81;95466.88;5115810;27;1902;-52
2023/01/14 02:16:08;;;;;;;;;;;;;;;0.56;86.99;95471.69;5107657;28;1107;-53
2023/01/14 02:18:46;;;;;;;;;;;;;;;0.52;86.14;95462.28;5115795;28;1027;-52
2023/01/14 02:21:19;;;;;;;;;;;;;;;0.51;86.17;95462.38;5115646;28;1027;-53
2023/01/14 02:23:51;;;;;;;;;;;;;;;0.42;84.87;95462.91;5115361;28;1067;-53
2023/01/14 02:26:17;;;;;;;;;;;;;;;0.15;86.00;95461.00;5115490;28;976;-52
2023/01/14 02:28:59;;;;;;;;;;;;;;;0.09;86.70;95458.72;5115355;28;1050;-53
2023/01/14 02:31:25;;;;;;;;;;;;;;;0.27;87.03;95457.66;5115414;28;980;-53
2023/01/14 02:34:00;;;;;;;;;;;;;;;0.32;86.66;95460.00;5115327;28;1988;-52
2023/01/14 02:36:45;;;;;;;;;;;;;;;0.32;86.89;95457.38;5115207;28;1008;-52
2023/01/14 02:39:19;;;;;;;;;;;;;;;0.19;86.34;95459.91;5115272;28;1316;-53
2023/01/14 02:44:36;;;;;;;;;;;;;;;0.20;86.69;95461.56;5115060;28;1055;-53
2023/01/14 02:47:05;;;;;;;;;;;;;;;0.30;86.63;95464.50;5115303;28;968;-52
2023/01/14 02:49:33;;;;;;;;;;;;;;;0.39;86.08;95458.69;5115186;28;1007;-53
2023/01/14 02:51:59;;;;;;;;;;;;;;;0.32;86.70;95467.88;5114900;28;1242;-53
2023/01/14 02:54:25;;;;;;;;;;;;;;;0.29;86.88;95462.81;5115135;28;1969;-53
2023/01/14 02:56:53;;;;;;;;;;;;;;;0.14;86.50;95464.56;5115013;28;957;-52
2023/01/14 02:59:19;;;;;;;;;;;;;;;0.14;86.52;95454.91;5114750;28;1099;-53
2023/01/14 03:02:03;;;;;;;;;;;;;;;0.28;86.46;95463.75;5113844;28;1012;-53
2023/01/14 03:04:53;;;;;;;;;;;;;;;0.44;86.21;95456.66;5114866;28;983;-53
2023/01/14 03:07:19;;;;;;;;;;;;;;;0.47;85.66;95461.69;5114816;28;1055;-52
2023/01/14 03:09:46;;;;;;;;;;;;;;;0.43;86.15;95460.19;5114645;28;1011;-53
2023/01/14 03:12:16;;;;;;;;;;;;;;;0.31;87.11;95458.31;5114758;28;1992;-53
2023/01/14 03:14:46;;;;;;;;;;;;;;;0.39;87.48;95456.06;5113515;28;1043;-53
2023/01/14 03:17:20;;;;;;;;;;;;;;;0.58;87.28;95453.19;5114691;28;1050;-53
2023/01/14 03:19:52;;;;;;;;;;;;;;;0.60;86.68;95459.19;5114636;28;998;-53
2023/01/14 03:22:19;;;;;;;;;;;;;;;0.50;85.93;95455.44;5114464;28;969;-53
2023/01/14 03:24:46;;;;;;;;;;;;;;;0.45;86.76;95447.81;5114511;28;1161;-53
2023/01/14 03:27:23;;;;;;;;;;;;;;;0.50;87.83;95451.00;5114364;28;2012;-52
2023/01/14 03:29:53;;;;;;;;;;;;;;;0.62;87.57;95453.84;5114388;28;1093;-52
2023/01/14 03:32:25;;;;;;;;;;;;;;;0.74;88.23;95448.69;5114308;28;1906;-53
2023/01/14 03:35:10;;;;;;;;;;;;;;;0.79;87.96;95456.28;5114147;28;1023;-52
2023/01/14 03:37:38;;;;;;;;;;;;;;;0.82;86.40;95447.38;5114179;28;1031;-52
2023/01/14 03:40:08;;;;;;;;;;;;;;;0.75;86.34;95450.34;5113758;28;972;-52
2023/01/14 03:42:37;;;;;;;;;;;;;;;0.72;86.59;95453.19;5114033;28;1016;-53
2023/01/14 03:45:15;;;;;;;;;;;;;;;0.78;87.30;95451.97;5114137;28;1014;-53
2023/01/14 03:47:42;;;;;;;;;;;;;;;0.93;88.80;95453.66;5114210;28;1044;-52
2023/01/14 03:50:14;;;;;;;;;;;;;;;0.98;89.43;95456.81;5114224;28;976;-53
2023/01/14 03:52:59;;;;;;;;;;;;;;;1.00;88.92;95458.53;5113635;28;1894;-53
2023/01/14 03:55:58;;;;;;;;;;;;;;;1.02;89.19;95457.47;5113808;28;1067;-53
2023/01/14 03:58:53;;;;;;;;;;;;;;;1.05;87.65;95467.00;5079288;28;1183;-53
2023/01/14 04:01:22;;;;;;;;;;;;;;;0.90;87.08;95467.00;5100743;28;1305;-52
2023/01/14 04:03:48;;;;;;;;;;;;;;;0.77;87.40;95473.97;5113856;28;1091;-52
2023/01/14 04:06:15;;;;;;;;;;;;;;;0.77;87.33;95466.06;5113742;28;1082;-53
2023/01/14 04:08:41;;;;;;;;;;;;;;;0.89;88.19;95462.69;5114021;28;999;-53
2023/01/14 04:11:08;;;;;;;;;;;;;;;0.98;89.06;95464.72;5113989;28;956;-53
2023/01/14 04:16:18;;;;;;;;;;;;;;;1.08;88.86;95475.56;5113700;28;941;-53
2023/01/14 04:18:44;;;;;;;;;;;;;;;1.09;88.85;95474.59;5113689;28;1041;-52
2023/01/14 04:21:10;;;;;;;;;;;;;;;1.03;87.67;95480.25;5113697;28;1015;-53
2023/01/14 04:23:36;;;;;;;;;;;;;;;0.98;87.68;95470.00;5113681;28;1099;-53
2023/01/14 04:26:02;;;;;;;;;;;;;;;1.07;87.84;95470.38;5113806;28;995;-53
2023/01/14 04:28:28;;;;;;;;;;;;;;;1.07;87.84;95470.38;5113636;28;975;-53
2023/01/14 04:30:54;;;;;;;;;;;;;;;1.08;88.12;95465.03;5113556;28;1016;-52
2023/01/14 04:33:21;;;;;;;;;;;;;;;1.12;87.69;95468.28;5113393;28;1906;-52
2023/01/14 04:35:50;;;;;;;;;;;;;;;1.17;87.39;95464.41;5113588;28;1115;-52
2023/01/14 04:38:17;;;;;;;;;;;;;;;1.14;87.43;95469.06;5113749;28;1187;-53
2023/01/14 04:40:43;;;;;;;;;;;;;;;1.21;87.14;95472.16;5113681;28;1111;-53
2023/01/14 04:43:09;;;;;;;;;;;;;;;1.23;87.75;95468.47;5113614;28;956;-53
2023/01/14 04:45:36;;;;;;;;;;;;;;;1.23;88.18;95478.16;5113449;28;1225;-52
2023/01/14 04:48:02;;;;;;;;;;;;;;;1.36;88.08;95471.19;5113445;28;960;-53
2023/01/14 04:50:33;;;;;;;;;;;;;;;1.38;88.19;95482.47;5113475;28;1062;-52
2023/01/14 04:53:03;;;;;;;;;;;;;;;1.40;88.31;95485.84;5116991;28;1984;-52
2023/01/14 04:55:29;;;;;;;;;;;;;;;1.39;88.54;95475.44;5117359;28;992;-53
2023/01/14 04:57:55;;;;;;;;;;;;;;;1.38;88.39;95479.00;5117250;28;1086;-53
2023/01/14 05:00:21;;;;;;;;;;;;;;;1.19;88.73;95479.31;5117065;28;973;-53
2023/01/14 05:02:48;;;;;;;;;;;;;;;1.01;89.13;95476.03;5117402;28;979;-53
2023/01/14 05:05:14;;;;;;;;;;;;;;;0.86;89.47;95475.19;5117108;28;1075;-52
2023/01/14 05:07:40;;;;;;;;;;;;;;;0.78;89.90;95478.28;5117169;28;1197;-52
2023/01/14 05:10:06;;;;;;;;;;;;;;;0.79;90.18;95477.34;5117204;28;968;-52
2023/01/14 05:12:32;;;;;;;;;;;;;;;0.84;89.82;95480.53;5116933;28;2005;-53
2023/01/14 05:14:58;;;;;;;;;;;;;;;0.83;89.35;95470.94;5117008;28;1028;-53
2023/01/14 05:17:24;;;;;;;;;;;;;;;0.81;90.04;95471.97;5116788;28;1028;-52
2023/01/14 05:19:50;;;;;;;;;;;;;;;0.68;90.13;95477.97;5117062;28;1051;-53
2023/01/14 05:22:16;;;;;;;;;;;;;;;0.73;90.00;95480.34;5116972;27;1026;-52
2023/01/14 05:24:42;;;;;;;;;;;;;;;0.81;89.16;95475.47;5116620;28;1091;-53
2023/01/14 05:27:08;;;;;;;;;;;;;;;0.93;89.26;95473.84;5116848;28;991;-53
2023/01/14 05:29:34;;;;;;;;;;;;;;;1.01;89.10;95483.94;5116529;28;1044;-53
2023/01/14 05:32:00;;;;;;;;;;;;;;;1.05;88.35;95473.09;5116595;28;1011;-53
2023/01/14 05:34:27;;;;;;;;;;;;;;;1.04;88.24;95481.94;5115373;28;1903;-53
2023/01/14 05:36:53;;;;;;;;;;;;;;;0.87;88.57;95476.88;5116427;28;1083;-53
2023/01/14 05:39:19;;;;;;;;;;;;;;;0.69;88.67;95478.84;5116372;28;929;-53
2023/01/14 05:47:14;;;;;;;;;;;;;;;1.10;88.25;95485.97;5116328;28;1151;-53
2023/01/14 05:49:40;;;;;;;;;;;;;;;1.11;86.91;95485.03;5116341;28;996;-53
2023/01/14 05:52:06;;;;;;;;;;;;;;;0.99;86.38;95489.28;5116137;28;1080;-53
2023/01/14 05:54:32;;;;;;;;;;;;;;;0.83;86.29;95489.38;5116047;28;1886;-53
2023/01/14 05:56:58;;;;;;;;;;;;;;;0.69;87.16;95487.59;5116101;28;1043;-53
2023/01/14 05:59:24;;;;;;;;;;;;;;;0.61;87.70;95479.31;5116194;28;1046;-53
2023/01/14 06:07:36;;;;;;;;;;;;;;;0.50;88.31;95481.75;5072880;28;1072;-53
2023/01/14 06:10:03;;;;;;;;;;;;;;;0.59;87.27;95486.47;5107352;28;1076;-52
2023/01/14 06:15:21;;;;;;;;;;;;;;;0.43;88.10;95488.31;5099651;28;1315;-53
2023/01/14 06:17:56;;;;;;;;;;;;;;;0.61;87.70;95474.06;5115709;28;1028;-53
2023/01/14 06:20:23;;;;;;;;;;;;;;;0.67;87.22;95478.94;5115884;27;1007;-52
2023/01/14 06:22:49;;;;;;;;;;;;;;;0.53;87.05;95471.88;5115834;28;952;-52
2023/01/14 06:25:15;;;;;;;;;;;;;;;0.54;86.86;95473.56;5115611;28;1102;-53
2023/01/14 06:27:41;;;;;;;;;;;;;;;0.80;86.23;95475.53;5115551;28;988;-52
2023/01/14 06:30:07;;;;;;;;;;;;;;;0.90;86.03;95480.16;5115532;28;968;-52
2023/01/14 06:32:33;;;;;;;;;;;;;;;0.97;86.04;95478.00;5115199;28;1910;-51
2023/01/14 06:34:59;;;;;;;;;;;;;;;1.13;85.57;95478.72;5115632;28;1022;-52
2023/01/14 06:37:25;;;;;;;;;;;;;;;1.34;84.81;95452.81;5115234;28;1024;-52
2023/01/14 06:39:51;;;;;;;;;;;;;;;1.48;84.22;95480.09;5115389;28;1039;-52
2023/01/14 06:42:17;;;;;;;;;;;;;;;1.59;84.97;95484.69;5115248;28;1011;-52
2023/01/14 06:44:43;;;;;;;;;;;;;;;2.08;82.85;95466.50;5115294;28;991;-52
2023/01/14 06:47:09;;;;;;;;;;;;;;;2.37;81.16;95478.69;5115167;27;1011;-52
2023/01/14 06:49:35;;;;;;;;;;;;;;;3.09;78.68;95481.66;5115073;28;1060;-52
2023/01/14 06:52:02;;;;;;;;;;;;;;;3.77;76.00;95483.00;5114926;28;1856;-52
2023/01/14 06:54:28;;;;;;;;;;;;;;;4.86;71.57;95477.50;5114918;28;1914;-52
2023/01/14 06:56:54;;;;;;;;;;;;;;;5.70;68.24;95477.13;5115045;28;1250;-52
2023/01/14 06:59:20;;;;;;;;;;;;;;;5.70;67.00;95476.28;5114925;28;1986;-52
2023/01/14 07:01:46;;;;;;;;;;;;;;;5.39;68.34;95479.59;5114865;28;1031;-52
2023/01/14 07:04:12;;;;;;;;;;;;;;;5.51;68.33;95482.22;5115032;28;1120;-52
2023/01/14 07:06:38;;;;;;;;;;;;;;;5.49;68.54;95487.66;5115010;28;1247;-53
2023/01/14 07:09:04;;;;;;;;;;;;;;;5.10;69.56;95484.50;5115011;28;1019;-52
2023/01/14 07:11:30;;;;;;;;;;;;;;;4.66;72.13;95480.81;5114673;28;908;-53
2023/01/14 07:13:56;;;;;;;;;;;;;;;4.64;72.02;95482.75;5113410;28;1986;-52
2023/01/14 07:16:22;;;;;;;;;;;;;;;4.76;71.96;95481.84;5111964;28;1250;-52
2023/01/14 07:18:48;;;;;;;;;;;;;;;4.77;72.23;95480.84;5114135;28;1216;-52
2023/01/14 07:21:14;;;;;;;;;;;;;;;5.00;71.47;95479.06;5113372;28;1117;-52
2023/01/14 07:23:41;;;;;;;;;;;;;;;5.03;70.58;95478.00;5114462;28;1126;-52
2023/01/14 07:26:07;;;;;;;;;;;;;;;4.65;72.48;95479.16;5096494;28;1079;-52
2023/01/14 07:28:33;;;;;;;;;;;;;;;4.29;74.68;95479.16;5112996;28;1083;-53
2023/01/14 07:31:03;;;;;;;;;;;;;;;4.14;75.61;95482.13;5114359;27;1028;-53
2023/01/14 07:33:29;;;;;;;;;;;;;;;4.22;75.76;95485.03;5114494;28;1906;-52
2023/01/14 07:35:57;;;;;;;;;;;;;;;4.03;76.39;95494.31;5113312;28;925;-52
2023/01/14 07:38:23;;;;;;;;;;;;;;;3.77;77.93;95492.72;5114073;28;1080;-52
2023/01/14 07:40:49;;;;;;;;;;;;;;;3.33;79.90;95495.81;5114373;28;972;-52
2023/01/14 07:43:15;;;;;;;;;;;;;;;2.91;81.71;95494.38;5114197;28;1074;-52
2023/01/14 07:45:42;;;;;;;;;;;;;;;2.80;82.53;95503.03;5114108;28;1024;-52
2023/01/14 07:48:08;;;;;;;;;;;;;;;2.59;83.50;95509.78;5114063;28;1360;-52
2023/01/14 07:53:56;;;;;;;;;;;;;;;2.44;85.72;95511.66;5088767;28;1921;-53
2023/01/14 07:56:22;;;;;;;;;;;;;;;2.39;85.24;95509.34;5113440;28;1249;-52
2023/01/14 07:58:48;;;;;;;;;;;;;;;2.39;85.00;95514.63;5114188;28;1106;-52
2023/01/14 08:01:14;;;;;;;;;;;;;;;2.21;85.67;95506.09;5114033;28;1494;-52
2023/01/14 08:03:40;;;;;;;;;;;;;;;2.03;86.21;95513.44;5113961;28;1002;-53
2023/01/14 08:06:06;;;;;;;;;;;;;;;2.02;86.73;95514.38;5112498;28;1041;-52
2023/01/14 08:08:33;;;;;;;;;;;;;;;2.18;86.72;95516.00;5113736;28;1258;-52
2023/01/14 08:11:00;;;;;;;;;;;;;;;2.35;85.25;95515.75;5114175;28;948;-52
2023/01/14 08:13:27;;;;;;;;;;;;;;;2.41;85.97;95515.34;5113704;28;1999;-52
2023/01/14 08:15:54;;;;;;;;;;;;;;;2.30;86.16;95512.56;5113766;28;1184;-52
2023/01/14 08:18:20;;;;;;;;;;;;;;;2.30;86.51;95520.50;5113830;28;952;-52
2023/01/14 08:20:46;;;;;;;;;;;;;;;2.31;87.36;95516.91;5113804;28;1044;-52
2023/01/14 08:23:12;;;;;;;;;;;;;;;2.40;87.52;95529.47;5113731;28;1123;-52
2023/01/14 08:25:38;;;;;;;;;;;;;;;2.59;86.89;95522.97;5115330;28;1195;-52
2023/01/14 08:28:05;;;;;;;;;;;;;;;2.59;87.15;95515.91;5118060;28;1015;-52
2023/01/14 08:30:31;;;;;;;;;;;;;;;2.64;86.35;95527.00;5117786;28;1044;-52
2023/01/14 08:32:57;;;;;;;;;;;;;;;2.62;87.09;95526.25;5117888;28;1991;-52
2023/01/14 08:35:23;;;;;;;;;;;;;;;2.79;86.85;95525.13;5117586;28;1130;-52
2023/01/14 08:37:50;;;;;;;;;;;;;;;2.81;86.13;95532.91;5117775;28;1051;-51
2023/01/14 08:40:17;;;;;;;;;;;;;;;2.78;86.96;95533.97;5117912;28;956;-52
2023/01/14 08:42:43;;;;;;;;;;;;;;;2.90;86.35;95524.38;5117643;28;1084;-52
2023/01/14 08:45:10;;;;;;;;;;;;;;;2.87;86.50;95530.72;5117725;28;1310;-52
2023/01/14 08:47:36;;;;;;;;;;;;;;;3.13;86.31;95536.84;5117389;28;1389;-52
2023/01/14 08:50:02;;;;;;;;;;;;;;;3.20;85.78;95539.91;5117662;28;1039;-53
2023/01/14 08:52:31;;;;;;;;;;;;;;;3.31;86.08;95537.34;5116077;28;1983;-52
2023/01/14 08:54:57;;;;;;;;;;;;;;;3.25;85.81;95536.94;5117316;27;1214;-53
2023/01/14 08:57:23;;;;;;;;;;;;;;;3.37;85.54;95536.09;5117059;27;1228;-52
2023/01/14 08:59:49;;;;;;;;;;;;;;;3.40;86.31;95533.22;5117295;28;1023;-52
2023/01/14 09:02:16;;;;;;;;;;;;;;;3.47;85.47;95538.91;5117489;28;975;-53
2023/01/14 09:04:42;;;;;;;;;;;;;;;3.61;85.33;95536.16;5117186;28;1208;-53
2023/01/14 09:18:06;;;;;;;;;;;;;;;4.29;83.78;95537.41;5116935;28;1585;-53
2023/01/14 09:20:38;;;;;;;;;;;;;;;4.63;83.04;95524.28;5116857;28;1036;-53
2023/01/14 09:23:04;;;;;;;;;;;;;;;4.67;81.56;95528.41;5116836;28;1856;-53
2023/01/14 09:25:30;;;;;;;;;;;;;;;4.93;81.72;95530.84;5116641;28;1114;-53
2023/01/14 09:27:56;;;;;;;;;;;;;;;5.20;80.56;95527.91;5116530;28;1652;-53
2023/01/14 09:30:23;;;;;;;;;;;;;;;5.35;79.67;95525.00;5116689;28;1269;-53
2023/01/14 09:32:49;;;;;;;;;;;;;;;5.38;78.76;95522.97;5116589;28;1910;-53
2023/01/14 09:35:15;;;;;;;;;;;;;;;5.67;78.58;95523.34;5116837;28;1139;-53
2023/01/14 09:37:41;;;;;;;;;;;;;;;5.82;78.28;95523.91;5115579;28;1058;-53
2023/01/14 09:40:08;;;;;;;;;;;;;;;5.74;78.25;95522.84;5116625;28;964;-52
2023/01/14 09:42:36;;;;;;;;;;;;;;;5.80;77.87;95512.56;5116397;28;1007;-52
2023/01/14 09:45:14;;;;;;;;;;;;;;;5.81;77.19;95516.06;5116376;28;988;-52
2023/01/14 09:47:41;;;;;;;;;;;;;;;5.79;77.64;95510.06;5116162;28;1089;-52
2023/01/14 09:50:13;;;;;;;;;;;;;;;5.90;77.80;95515.34;5116441;28;1035;-52
2023/01/14 09:52:45;;;;;;;;;;;;;;;6.15;76.59;95514.22;5116045;28;1914;-52
2023/01/14 09:55:21;;;;;;;;;;;;;;;6.18;75.13;95518.44;5116112;28;1218;-53
2023/01/14 09:57:56;;;;;;;;;;;;;;;6.08;74.89;95506.88;5116053;28;1033;-53
2023/01/14 10:00:40;;;;;;;;;;;;;;;6.30;75.75;95511.25;5116281;28;1006;-52
2023/01/14 10:03:20;;;;;;;;;;;;;;;6.43;73.97;95501.31;5116128;28;1052;-53
2023/01/14 10:05:56;;;;;;;;;;;;;;;6.51;73.69;95509.50;5116021;28;999;-52
2023/01/14 10:08:23;;;;;;;;;;;;;;;6.41;72.21;95509.44;5115703;28;1402;-52
2023/01/14 10:10:49;;;;;;;;;;;;;;;6.39;72.93;95500.75;5116070;27;972;-52
2023/01/14 10:13:21;;;;;;;;;;;;;;;6.53;73.31;95504.06;5115886;28;1914;-52
2023/01/14 10:15:47;;;;;;;;;;;;;;;6.67;72.01;95498.44;5115902;28;967;-55
2023/01/14 10:18:13;;;;;;;;;;;;;;;6.74;71.90;95501.44;5115553;28;1185;-53
2023/01/14 10:20:49;;;;;;;;;;;;;;;6.90;71.06;95488.50;5115648;28;1055;-53
2023/01/14 10:23:17;;;;;;;;;;;;;;;7.12;70.17;95490.19;5115809;28;1130;-52
2023/01/14 10:25:51;;;;;;;;;;;;;;;7.13;69.83;95489.22;5115496;28;1511;-53
2023/01/14 10:28:20;;;;;;;;;;;;;;;7.08;70.52;95479.97;5115395;28;975;-52
2023/01/14 10:30:47;;;;;;;;;;;;;;;7.14;70.28;95480.25;5115471;28;1064;-52
2023/01/14 10:33:14;;;;;;;;;;;;;;;7.16;70.19;95482.78;5115302;28;1918;-52
2023/01/14 10:35:43;;;;;;;;;;;;;;;7.26;70.84;95478.34;5115289;28;1091;-52
2023/01/14 10:38:15;;;;;;;;;;;;;;;7.35;70.61;95471.41;5115285;28;1204;-52
2023/01/14 10:40:41;;;;;;;;;;;;;;;7.52;69.75;95465.44;5115227;28;1115;-53
2023/01/14 10:43:14;;;;;;;;;;;;;;;7.83;67.94;95465.41;5114036;28;1011;-54
2023/01/14 10:45:41;;;;;;;;;;;;;;;7.78;68.21;95465.81;5115190;28;1082;-52
2023/01/14 10:48:08;;;;;;;;;;;;;;;7.55;68.52;95462.53;5114924;28;1483;-53
2023/01/14 10:50:35;;;;;;;;;;;;;;;7.46;69.38;95463.34;5115078;28;1114;-51
2023/01/14 10:53:15;;;;;;;;;;;;;;;7.65;68.59;95454.56;5115156;28;1988;-53
2023/01/14 10:55:53;;;;;;;;;;;;;;;7.20;69.51;95453.13;5113658;28;1250;-52
2023/01/14 10:58:27;;;;;;;;;;;;;;;7.26;70.80;95456.25;5114720;28;1183;-53
2023/01/14 11:00:59;;;;;;;;;;;;;;;7.24;70.72;95449.22;5114891;28;1036;-52
2023/01/14 11:03:34;;;;;;;;;;;;;;;7.30;71.22;95447.03;5114822;28;1036;-52
2023/01/14 11:06:06;;;;;;;;;;;;;;;7.24;71.26;95446.56;5114923;28;1046;-52
2023/01/14 11:08:48;;;;;;;;;;;;;;;7.15;70.64;95441.22;5114405;28;1189;-52
2023/01/14 11:11:19;;;;;;;;;;;;;;;7.33;69.80;95431.63;5115029;28;952;-53
2023/01/14 11:13:50;;;;;;;;;;;;;;;7.43;69.13;95427.19;5114474;28;2012;-52
2023/01/14 11:16:19;;;;;;;;;;;;;;;7.40;70.43;95429.28;5114602;28;1066;-52
2023/01/14 11:18:50;;;;;;;;;;;;;;;7.39;70.17;95417.78;5114285;28;1096;-52
2023/01/14 11:21:16;;;;;;;;;;;;;;;7.55;68.72;95427.94;5114770;28;1039;-53
2023/01/14 11:23:52;;;;;;;;;;;;;;;7.55;68.94;95424.41;5114578;28;1376;-52
2023/01/14 11:26:22;;;;;;;;;;;;;;;7.54;69.41;95418.25;5114380;28;1165;-52
2023/01/14 11:28:49;;;;;;;;;;;;;;;7.81;69.15;95414.13;5114261;28;1172;-52
2023/01/14 11:31:25;;;;;;;;;;;;;;;7.87;69.23;95410.88;5114351;28;1023;-53
2023/01/14 11:33:52;;;;;;;;;;;;;;;7.80;69.71;95420.44;5114543;28;1979;-52
2023/01/14 11:36:25;;;;;;;;;;;;;;;7.53;68.33;95413.94;5114394;28;964;-52
2023/01/14 11:38:52;;;;;;;;;;;;;;;7.63;69.19;95416.63;5113957;28;1154;-52
2023/01/14 11:41:32;;;;;;;;;;;;;;;7.84;68.92;95416.50;5114063;28;1074;-52
2023/01/14 11:44:04;;;;;;;;;;;;;;;8.04;68.96;95420.03;5114139;28;979;-52
2023/01/14 11:46:33;;;;;;;;;;;;;;;8.12;66.31;95417.53;5114262;28;967;-52
2023/01/14 11:49:19;;;;;;;;;;;;;;;8.10;67.49;95414.16;5113747;28;1035;-52
2023/01/14 11:52:02;;;;;;;;;;;;;;;7.99;67.37;95407.13;5114169;28;969;-52
2023/01/14 11:54:38;;;;;;;;;;;;;;;7.76;68.69;95405.72;5113576;28;1905;-53
2023/01/14 11:57:04;;;;;;;;;;;;;;;7.74;68.07;95408.50;5113025;28;1007;-52
2023/01/14 11:59:31;;;;;;;;;;;;;;;7.96;69.33;95409.22;5113436;28;1180;-53
2023/01/14 12:02:02;;;;;;;;;;;;;;;7.83;67.76;95401.50;5114027;28;960;-53
2023/01/14 12:04:35;;;;;;;;;;;;;;;7.79;69.86;95395.59;5113929;28;1003;-52
2023/01/14 12:07:03;;;;;;;;;;;;;;;7.74;70.55;95397.88;5113854;28;987;-53
2023/01/14 12:09:43;;;;;;;;;;;;;;;7.59;71.21;95400.06;5113781;28;1084;-53
2023/01/14 12:12:18;;;;;;;;;;;;;;;7.63;69.17;95398.81;5114072;28;1043;-54
2023/01/14 12:17:38;;;;;;;;;;;;;;;7.66;71.75;95404.84;5113738;28;1019;-52
2023/01/14 12:20:04;;;;;;;;;;;;;;;7.73;70.61;95395.34;5093436;28;1040;-52
2023/01/14 12:22:45;;;;;;;;;;;;;;;7.89;70.77;95403.63;5093521;28;912;-53
2023/01/14 12:25:32;;;;;;;;;;;;;;;8.05;69.70;95404.91;5109830;28;1115;-52
2023/01/14 12:28:13;;;;;;;;;;;;;;;7.87;68.47;95404.72;5113426;28;1562;-52
2023/01/14 12:30:51;;;;;;;;;;;;;;;7.93;68.53;95406.84;5113858;28;1018;-52
2023/01/14 12:33:37;;;;;;;;;;;;;;;8.01;69.43;95410.50;5113756;28;2002;-53
2023/01/14 12:36:06;;;;;;;;;;;;;;;8.13;69.12;95403.22;5112983;28;1221;-52
2023/01/14 12:46:50;;;;;;;;;;;;;;;8.08;67.38;95399.28;5113253;28;1031;-52
2023/01/14 12:49:17;;;;;;;;;;;;;;;8.10;69.12;95403.50;5093574;28;959;-52
2023/01/14 12:51:45;;;;;;;;;;;;;;;8.07;68.44;95401.13;5093286;28;975;-53
2023/01/14 12:54:23;;;;;;;;;;;;;;;7.97;68.56;95397.63;5092842;28;1983;-53
2023/01/14 12:56:54;;;;;;;;;;;;;;;7.99;70.42;95398.31;5093156;28;957;-52
2023/01/14 12:59:26;;;;;;;;;;;;;;;8.10;70.22;95405.31;5092909;28;1007;-53
2023/01/14 13:01:55;;;;;;;;;;;;;;;8.05;69.88;95411.06;5093222;28;965;-53
2023/01/14 13:04:30;;;;;;;;;;;;;;;8.08;69.99;95399.28;5093108;28;957;-52
2023/01/14 13:06:58;;;;;;;;;;;;;;;8.05;70.51;95412.91;5093080;28;1044;-53
2023/01/14 13:09:28;;;;;;;;;;;;;;;8.12;69.79;95403.34;5113262;28;964;-53
2023/01/14 13:11:55;;;;;;;;;;;;;;;7.98;70.36;95410.75;5113904;28;1032;-52
2023/01/14 13:14:24;;;;;;;;;;;;;;;7.90;70.67;95410.63;5116802;28;1902;-53
2023/01/14 13:16:58;;;;;;;;;;;;;;;7.99;70.29;95411.63;5117116;28;968;-52
2023/01/14 13:19:24;;;;;;;;;;;;;;;8.08;69.91;95413.47;5115662;28;1015;-52
2023/01/14 13:21:56;;;;;;;;;;;;;;;8.02;69.92;95412.19;5116956;28;1039;-52
2023/01/14 13:24:57;;;;;;;;;;;;;;;8.00;70.46;95413.28;5116467;28;1118;-53
2023/01/14 13:27:32;;;;;;;;;;;;;;;7.75;70.25;95420.00;5116255;28;1316;-53
2023/01/14 13:30:17;;;;;;;;;;;;;;;7.86;70.92;95427.03;5116841;28;956;-52
2023/01/14 13:32:52;;;;;;;;;;;;;;;7.98;71.16;95425.91;5116526;28;2005;-52
2023/01/14 13:35:21;;;;;;;;;;;;;;;7.79;70.62;95427.56;5116763;28;948;-52
2023/01/14 13:37:49;;;;;;;;;;;;;;;7.79;70.25;95422.22;5116522;28;1205;-52
2023/01/14 13:40:27;;;;;;;;;;;;;;;7.93;70.28;95423.69;5116610;28;1083;-52
2023/01/14 13:42:55;;;;;;;;;;;;;;;7.84;70.78;95410.34;5116578;28;959;-52
2023/01/14 13:45:29;;;;;;;;;;;;;;;7.76;68.80;95427.84;5116389;27;1027;-52
2023/01/14 13:47:57;;;;;;;;;;;;;;;7.66;68.52;95426.13;5116394;28;1034;-52
2023/01/14 13:50:25;;;;;;;;;;;;;;;7.69;70.16;95423.22;5116291;28;1036;-52
2023/01/14 13:52:57;;;;;;;;;;;;;;;7.75;68.58;95420.81;5116399;28;1913;-52
2023/01/14 13:55:28;;;;;;;;;;;;;;;7.80;70.87;95429.25;5116121;28;1108;-51
2023/01/14 13:57:56;;;;;;;;;;;;;;;7.73;69.94;95424.63;5115941;28;1042;-52
2023/01/14 14:00:26;;;;;;;;;;;;;;;7.72;71.08;95420.25;5116339;28;1027;-52
2023/01/14 14:02:53;;;;;;;;;;;;;;;7.83;71.33;95422.81;5116334;28;992;-52
2023/01/14 14:05:21;;;;;;;;;;;;;;;7.85;69.73;95418.19;5116170;28;1024;-52